createdAt,value
2022-12-05T00:02:10.236Z,32.90
2022-12-05T00:04:38.437Z,36.43
2022-12-05T00:07:06.762Z,34.23
2022-12-05T00:09:34.815Z,33.90
2022-12-05T00:12:03.190Z,36.80
2022-12-05T00:14:31.502Z,32.43
2022-12-05T00:17:01.059Z,36.33
2022-12-05T00:19:29.539Z,33.13
2022-12-05T00:21:58.202Z,31.43
2022-12-05T00:24:26.600Z,35.03
2022-12-05T00:26:54.719Z,35.87
2022-12-05T00:29:23.029Z,35.50
2022-12-05T00:31:51.127Z,35.80
2022-12-05T00:34:20.768Z,36.77
2022-12-05T00:36:48.835Z,32.70
2022-12-05T00:39:16.921Z,29.20
2022-12-05T00:41:45.033Z,31.60
2022-12-05T00:44:13.600Z,29.53
2022-12-05T00:46:41.898Z,27.00
2022-12-05T00:49:10.294Z,29.40
2022-12-05T00:51:40.469Z,28.17
2022-12-05T00:54:12.386Z,27.53
2022-12-05T00:56:40.605Z,28.47
2022-12-05T00:59:08.674Z,29.20
2022-12-05T01:01:37.940Z,29.20
2022-12-05T01:04:08.525Z,27.10
2022-12-05T01:06:36.579Z,26.83
2022-12-05T01:09:06.566Z,28.43
2022-12-05T01:11:41.053Z,25.40
2022-12-05T01:14:09.834Z,28.67
2022-12-05T01:16:39.015Z,26.07
2022-12-05T01:19:08.012Z,24.90
2022-12-05T01:21:36.364Z,25.57
2022-12-05T01:24:06.599Z,26.87
2022-12-05T01:26:34.707Z,26.23
2022-12-05T01:29:03.490Z,25.00
2022-12-05T01:31:33.070Z,27.80
2022-12-05T01:34:02.058Z,26.00
2022-12-05T01:36:30.465Z,27.43
2022-12-05T01:38:58.717Z,25.27
2022-12-05T01:41:29.964Z,24.10
2022-12-05T01:43:59.837Z,24.70
2022-12-05T01:46:28.811Z,24.57
2022-12-05T01:48:59.495Z,24.73
2022-12-05T01:51:27.588Z,23.30
2022-12-05T01:53:55.988Z,24.37
2022-12-05T01:56:24.130Z,23.60
2022-12-05T01:58:53.844Z,24.10
2022-12-05T02:01:23.256Z,24.83
2022-12-05T02:03:52.866Z,21.90
2022-12-05T02:06:21.089Z,24.80
2022-12-05T02:08:49.187Z,23.83
2022-12-05T02:11:17.261Z,23.47
2022-12-05T02:13:55.646Z,22.03
2022-12-05T02:16:29.135Z,22.43
2022-12-05T02:19:14.767Z,22.57
2022-12-05T02:21:56.786Z,22.33
2022-12-05T02:24:36.596Z,22.90
2022-12-05T02:27:20.655Z,22.67
2022-12-05T02:30:14.582Z,24.50
2022-12-05T02:32:55.063Z,22.07
2022-12-05T02:35:29.360Z,23.10
2022-12-05T02:38:01.474Z,24.40
2022-12-05T02:40:32.516Z,21.70
2022-12-05T02:43:02.491Z,23.50
2022-12-05T02:45:33.238Z,22.83
2022-12-05T02:48:01.309Z,21.90
2022-12-05T02:50:30.853Z,24.37
2022-12-05T02:53:02.045Z,23.07
2022-12-05T02:55:30.746Z,22.77
2022-12-05T02:57:59.829Z,23.80
2022-12-05T03:00:28.154Z,23.03
2022-12-05T03:02:59.383Z,23.87
2022-12-05T03:05:34.481Z,22.57
2022-12-05T03:08:02.674Z,21.03
2022-12-05T03:10:32.281Z,23.27
2022-12-05T03:13:04.149Z,23.10
2022-12-05T03:15:33.199Z,23.33
2022-12-05T03:18:06.741Z,24.20
2022-12-05T03:20:36.259Z,21.60
2022-12-05T03:23:06.725Z,24.30
2022-12-05T03:25:37.689Z,22.77
2022-12-05T03:28:07.698Z,22.93
2022-12-05T03:30:36.600Z,24.60
2022-12-05T03:33:09.219Z,24.90
2022-12-05T03:35:38.362Z,24.10
2022-12-05T03:38:09.060Z,25.80
2022-12-05T03:40:40.062Z,24.17
2022-12-05T03:43:10.394Z,26.63
2022-12-05T03:45:40.588Z,27.87
2022-12-05T03:48:12.508Z,29.80
2022-12-05T03:50:41.635Z,28.97
2022-12-05T03:53:19.595Z,29.80
2022-12-05T03:55:49.246Z,31.47
2022-12-05T03:58:19.237Z,28.07
2022-12-05T04:00:47.872Z,27.47
2022-12-05T04:03:23.011Z,29.00
2022-12-05T04:05:52.536Z,29.90
2022-12-05T04:08:22.507Z,28.97
2022-12-05T04:10:51.510Z,26.43
2022-12-05T04:13:24.594Z,28.20
2022-12-05T04:16:12.540Z,26.43
2022-12-05T04:18:44.109Z,27.23
2022-12-05T04:21:29.426Z,26.40
2022-12-05T04:24:11.338Z,25.53
2022-12-05T04:26:41.791Z,25.47
2022-12-05T04:29:12.689Z,26.07
2022-12-05T04:31:42.219Z,23.53
2022-12-05T04:34:13.347Z,23.23
2022-12-05T04:36:43.708Z,24.03
2022-12-05T04:39:18.008Z,23.10
2022-12-05T04:41:48.333Z,22.97
2022-12-05T04:44:18.534Z,21.53
2022-12-05T04:46:46.860Z,23.37
2022-12-05T04:49:19.535Z,22.47
2022-12-05T04:51:47.627Z,22.87
2022-12-05T04:54:18.130Z,24.27
2022-12-05T04:56:46.252Z,22.27
2022-12-05T04:59:14.353Z,24.43
2022-12-05T05:01:43.396Z,25.00
2022-12-05T05:04:13.611Z,23.87
2022-12-05T05:06:43.169Z,25.47
2022-12-05T05:09:11.320Z,26.70
2022-12-05T05:11:39.410Z,26.80
2022-12-05T05:14:07.524Z,25.43
2022-12-05T05:16:36.813Z,25.17
2022-12-05T05:19:04.938Z,29.43
2022-12-05T05:21:34.222Z,28.13
2022-12-05T05:24:03.846Z,26.20
2022-12-05T05:26:32.376Z,27.27
2022-12-05T05:29:00.443Z,25.80
2022-12-05T05:31:28.871Z,26.20
2022-12-05T05:33:57.767Z,26.90
2022-12-05T05:36:27.370Z,26.63
2022-12-05T05:38:56.494Z,27.03
2022-12-05T05:41:27.027Z,24.87
2022-12-05T05:43:55.512Z,26.40
2022-12-05T05:46:24.470Z,26.00
2022-12-05T05:48:52.689Z,26.47
2022-12-05T05:51:21.225Z,25.93
2022-12-05T05:53:49.818Z,27.60
2022-12-05T05:56:21.734Z,26.70
2022-12-05T05:58:56.617Z,25.90
2022-12-05T06:01:24.879Z,26.53
2022-12-05T06:03:53.244Z,26.67
2022-12-05T06:06:22.085Z,27.53
2022-12-05T06:08:50.262Z,27.07
2022-12-05T06:11:25.324Z,27.07
2022-12-05T06:13:56.297Z,26.07
2022-12-05T06:16:24.622Z,27.57
2022-12-05T06:18:53.128Z,26.70
2022-12-05T06:21:21.348Z,26.80
2022-12-05T06:23:49.429Z,27.07
2022-12-05T06:26:18.955Z,27.53
2022-12-05T06:28:48.074Z,26.60
2022-12-05T06:31:18.748Z,28.83
2022-12-05T06:33:47.092Z,28.53
2022-12-05T06:36:17.211Z,29.73
2022-12-05T06:38:45.308Z,27.90
2022-12-05T06:41:15.639Z,29.43
2022-12-05T06:43:44.081Z,26.83
2022-12-05T06:46:13.288Z,28.73
2022-12-05T06:48:43.033Z,29.13
2022-12-05T06:51:11.349Z,29.23
2022-12-05T06:53:39.487Z,27.93
2022-12-05T06:56:12.668Z,27.90
2022-12-05T06:58:40.803Z,28.03
2022-12-05T07:01:30.483Z,23.17
2022-12-05T07:04:00.319Z,29.03
2022-12-05T07:06:28.674Z,28.97
2022-12-05T07:08:57.074Z,29.13
2022-12-05T07:11:25.130Z,28.57
2022-12-05T07:13:53.222Z,29.50
2022-12-05T07:16:21.562Z,29.97
2022-12-05T07:18:50.220Z,29.30
2022-12-05T07:21:21.661Z,27.80
2022-12-05T07:23:50.190Z,28.80
2022-12-05T07:26:19.432Z,28.03
2022-12-05T07:28:47.556Z,28.10
2022-12-05T07:31:17.152Z,27.83
2022-12-05T07:33:45.226Z,26.50
2022-12-05T07:36:14.416Z,26.10
2022-12-05T07:38:43.987Z,25.27
2022-12-05T07:41:13.756Z,25.27
2022-12-05T07:43:42.012Z,24.67
2022-12-05T07:46:11.435Z,24.80
2022-12-05T07:48:40.281Z,25.17
2022-12-05T07:51:09.746Z,24.17
2022-12-05T07:53:38.562Z,23.63
2022-12-05T07:56:09.073Z,25.00
2022-12-05T07:58:37.962Z,25.00
2022-12-05T08:01:09.524Z,25.10
2022-12-05T08:03:38.263Z,24.40
2022-12-05T08:18:10.647Z,24.10
2022-12-05T08:20:38.990Z,23.70
2022-12-05T08:23:07.141Z,22.90
2022-12-05T08:25:35.609Z,23.70
2022-12-05T08:28:03.789Z,23.67
2022-12-05T08:30:32.397Z,23.40
2022-12-05T08:33:01.177Z,22.67
2022-12-05T08:35:30.858Z,25.93
2022-12-05T08:37:59.262Z,25.40
2022-12-05T08:40:27.763Z,23.93
2022-12-05T08:42:55.988Z,25.37
2022-12-05T08:45:24.387Z,24.83
2022-12-05T08:47:52.687Z,25.17
2022-12-05T08:50:20.917Z,23.70
2022-12-05T08:52:50.620Z,25.30
2022-12-05T08:55:18.765Z,24.00
2022-12-05T08:57:47.043Z,24.47
2022-12-05T09:00:17.400Z,27.13
2022-12-05T09:02:45.805Z,24.90
2022-12-05T09:05:27.664Z,24.03
2022-12-05T09:07:59.399Z,24.87
2022-12-05T09:10:27.830Z,26.00
2022-12-05T09:12:55.956Z,25.77
2022-12-05T09:15:24.337Z,23.13
2022-12-05T09:17:52.859Z,24.20
2022-12-05T09:20:21.125Z,24.50
2022-12-05T09:22:49.449Z,23.60
2022-12-05T09:25:19.278Z,24.33
2022-12-05T09:27:47.567Z,23.10
2022-12-05T09:30:17.548Z,24.87
2022-12-05T09:32:45.710Z,25.10
2022-12-05T09:35:13.854Z,24.53
2022-12-05T09:37:42.166Z,24.17
2022-12-05T09:40:16.092Z,25.33
2022-12-05T09:42:52.233Z,23.57
2022-12-05T09:45:24.504Z,24.00
2022-12-05T09:48:00.999Z,23.57
2022-12-05T09:50:30.783Z,25.80
2022-12-05T09:53:12.695Z,24.10
2022-12-05T09:55:46.522Z,26.03
2022-12-05T09:58:22.771Z,25.53
2022-12-05T10:00:51.746Z,24.93
2022-12-05T10:03:24.264Z,23.93
2022-12-05T10:05:55.193Z,28.97
2022-12-05T10:08:25.305Z,25.13
2022-12-05T10:11:00.171Z,25.60
2022-12-05T10:13:37.702Z,24.60
2022-12-05T10:16:07.774Z,24.07
2022-12-05T10:18:39.576Z,23.23
2022-12-05T10:21:13.587Z,22.33
2022-12-05T10:23:57.450Z,22.60
2022-12-05T10:26:28.296Z,23.30
2022-12-05T10:29:01.456Z,21.77
2022-12-05T10:31:32.211Z,23.40
2022-12-05T10:34:04.612Z,22.20
2022-12-05T10:36:33.236Z,22.17
2022-12-05T10:39:01.316Z,22.60
2022-12-05T10:41:30.030Z,22.73
2022-12-05T10:43:59.721Z,21.07
2022-12-05T10:46:27.893Z,21.90
2022-12-05T10:48:56.241Z,20.67
2022-12-05T10:51:31.328Z,21.63
2022-12-05T10:54:04.049Z,22.07
2022-12-05T10:56:40.111Z,20.60
2022-12-05T10:59:10.641Z,20.67
2022-12-05T11:01:39.888Z,20.87
2022-12-05T11:04:13.906Z,22.17
2022-12-05T11:06:48.805Z,21.13
2022-12-05T11:09:19.995Z,22.10
2022-12-05T11:11:59.207Z,20.97
2022-12-05T11:14:29.809Z,20.83
2022-12-05T11:16:58.802Z,22.17
2022-12-05T11:19:28.836Z,22.10
2022-12-05T11:21:57.215Z,24.33
2022-12-05T11:24:28.345Z,22.83
2022-12-05T11:26:56.564Z,29.80
2022-12-05T11:29:34.361Z,27.50
2022-12-05T11:32:03.048Z,22.97
2022-12-05T11:34:33.173Z,25.90
2022-12-05T11:37:04.788Z,24.60
2022-12-05T11:39:33.235Z,23.47
2022-12-05T11:42:14.178Z,25.30
2022-12-05T11:45:17.799Z,26.97
2022-12-05T11:47:55.408Z,28.00
2022-12-05T11:50:30.099Z,25.47
2022-12-05T11:53:03.148Z,27.23
2022-12-05T12:13:11.337Z,27.40
2022-12-05T12:15:48.260Z,28.37
2022-12-05T12:18:21.359Z,30.63
2022-12-05T12:20:58.226Z,28.97
2022-12-05T12:23:34.867Z,30.60
2022-12-05T12:26:08.952Z,29.73
2022-12-05T12:28:41.389Z,29.30
2022-12-05T12:31:22.323Z,29.80
2022-12-05T12:33:52.761Z,27.53
2022-12-05T12:36:25.777Z,26.73
2022-12-05T12:39:01.717Z,29.23
2022-12-05T12:41:57.935Z,26.17
2022-12-05T12:44:50.916Z,25.53
2022-12-05T12:47:22.461Z,24.03
2022-12-05T12:49:56.517Z,23.77
2022-12-05T12:52:28.095Z,22.87
2022-12-05T12:55:05.606Z,22.80
2022-12-05T12:57:39.915Z,24.47
2022-12-05T13:00:14.192Z,23.13
2022-12-05T13:02:45.038Z,22.63
2022-12-05T13:05:21.136Z,25.00
2022-12-05T13:07:52.759Z,22.53
2022-12-05T13:10:26.224Z,21.40
2022-12-05T13:12:54.664Z,21.60
2022-12-05T13:15:25.607Z,21.90
2022-12-05T13:17:53.948Z,20.73
2022-12-05T13:20:23.214Z,21.33
2022-12-05T13:22:53.360Z,21.77
2022-12-05T13:25:22.522Z,22.03
2022-12-05T13:27:57.161Z,21.93
2022-12-05T13:30:28.167Z,20.90
2022-12-05T13:32:57.588Z,20.70
2022-12-05T13:35:47.870Z,19.87
2022-12-05T13:38:40.819Z,22.10
2022-12-05T13:41:26.617Z,20.67
2022-12-05T13:44:05.825Z,20.27
2022-12-05T13:46:35.615Z,19.33
2022-12-05T13:49:07.100Z,20.50
2022-12-05T13:51:37.549Z,20.40
2022-12-05T13:54:11.615Z,19.87
2022-12-05T13:56:51.367Z,19.63
2022-12-05T13:59:57.097Z,20.73
2022-12-05T14:02:51.539Z,19.73
2022-12-05T14:05:53.739Z,21.27
2022-12-05T14:08:57.309Z,18.90
2022-12-05T14:11:26.859Z,20.33
2022-12-05T14:13:59.147Z,21.17
2022-12-05T14:16:52.912Z,21.47
2022-12-05T14:19:49.499Z,19.57
2022-12-05T14:22:24.335Z,20.40
2022-12-05T14:24:55.976Z,20.83
2022-12-05T14:27:30.866Z,20.57
2022-12-05T14:30:03.182Z,19.53
2022-12-05T14:32:32.988Z,20.73
2022-12-05T14:35:05.498Z,20.50
2022-12-05T14:37:34.417Z,21.13
2022-12-05T14:40:03.462Z,21.10
2022-12-05T14:42:37.516Z,22.93
2022-12-05T14:45:24.188Z,23.50
2022-12-05T14:47:53.180Z,23.30
2022-12-05T14:50:35.504Z,25.30
2022-12-05T14:53:35.802Z,22.63
2022-12-05T14:56:16.618Z,23.23
2022-12-05T14:58:48.827Z,23.97
2022-12-05T15:01:18.915Z,25.80
2022-12-05T15:04:08.017Z,25.40
2022-12-05T15:06:37.334Z,24.63
2022-12-05T15:09:35.879Z,26.50
2022-12-05T15:11:57.612Z,25.57
2022-12-05T15:14:31.281Z,26.50
2022-12-05T15:16:59.902Z,27.07
2022-12-05T15:19:30.426Z,29.60
2022-12-05T15:21:59.250Z,29.93
2022-12-05T15:24:27.369Z,29.70
2022-12-05T15:26:55.936Z,28.50
2022-12-05T15:29:28.033Z,30.00
2022-12-05T15:31:57.121Z,31.90
2022-12-05T15:34:26.994Z,30.90
2022-12-05T15:36:58.808Z,32.07
2022-12-05T15:39:28.829Z,32.67
2022-12-05T15:41:57.874Z,32.77
2022-12-05T15:44:37.538Z,33.03
2022-12-05T15:47:06.476Z,31.33
2022-12-05T15:49:34.819Z,31.03
2022-12-05T15:52:10.277Z,29.37
2022-12-05T15:54:38.384Z,30.27
2022-12-05T15:57:08.064Z,29.27
2022-12-05T15:59:39.876Z,29.80
2022-12-05T16:02:13.783Z,31.90
2022-12-05T16:04:45.379Z,28.40
2022-12-05T16:07:13.909Z,29.47
2022-12-05T16:09:43.088Z,30.27
2022-12-05T16:12:25.609Z,30.60
2022-12-05T16:14:59.995Z,30.43
2022-12-05T16:17:28.650Z,30.90
2022-12-05T16:20:11.197Z,29.53
2022-12-05T16:22:39.568Z,30.53
2022-12-05T16:25:14.422Z,30.07
2022-12-05T16:27:44.264Z,29.23
2022-12-05T16:30:21.549Z,29.43
2022-12-05T16:32:50.378Z,29.07
2022-12-05T16:35:40.144Z,30.30
2022-12-05T16:38:13.213Z,30.83
2022-12-05T16:40:42.053Z,29.93
2022-12-05T16:43:19.876Z,29.93
2022-12-05T16:45:49.992Z,32.17
2022-12-05T16:48:21.013Z,24.60
2022-12-05T16:50:49.357Z,28.77
2022-12-05T16:53:32.203Z,31.10
2022-12-05T16:56:01.014Z,30.93
2022-12-05T16:58:31.110Z,30.67
2022-12-05T17:01:04.986Z,32.90
2022-12-05T17:03:34.864Z,33.33
2022-12-05T17:06:03.791Z,34.40
2022-12-05T17:08:31.847Z,32.73
2022-12-05T17:11:01.996Z,34.33
2022-12-05T17:13:30.612Z,38.27
2022-12-05T17:15:59.064Z,38.77
2022-12-05T17:18:31.880Z,37.30
2022-12-05T17:21:01.379Z,37.70
2022-12-05T17:23:29.812Z,51.20
2022-12-05T17:25:58.675Z,57.07
2022-12-05T17:28:26.815Z,63.93
2022-12-05T17:30:54.994Z,67.67
2022-12-05T17:33:23.053Z,71.70
2022-12-05T17:35:53.446Z,78.07
2022-12-05T17:38:22.103Z,67.00
2022-12-05T17:40:50.474Z,73.97
2022-12-05T17:43:24.464Z,68.93
2022-12-05T17:45:54.996Z,71.13
2022-12-05T17:48:23.337Z,63.97
2022-12-05T17:50:52.832Z,67.57
2022-12-05T17:53:22.017Z,67.80
2022-12-05T17:55:50.592Z,76.00
2022-12-05T17:58:18.979Z,73.70
2022-12-05T18:00:47.755Z,71.30
2022-12-05T18:03:16.630Z,75.80
2022-12-05T18:05:45.046Z,69.90
2022-12-05T18:08:14.662Z,79.40
2022-12-05T18:10:43.158Z,89.67
2022-12-05T18:13:11.309Z,96.57
2022-12-05T18:15:43.087Z,103.20
2022-12-05T18:18:12.666Z,106.00
2022-12-05T18:20:41.170Z,77.63
2022-12-05T18:23:09.246Z,79.17
2022-12-05T18:25:38.869Z,75.37
2022-12-05T18:28:07.180Z,76.00
2022-12-05T18:30:35.290Z,73.10
2022-12-05T18:33:03.639Z,70.43
2022-12-05T18:35:43.683Z,72.33
2022-12-05T18:38:12.358Z,69.17
2022-12-05T18:40:42.020Z,71.73
2022-12-05T18:43:10.134Z,71.53
2022-12-05T18:45:38.461Z,70.17
2022-12-05T18:48:31.399Z,73.10
2022-12-05T18:50:55.413Z,70.90
2022-12-05T18:53:23.787Z,72.13
2022-12-05T18:56:20.849Z,72.67
2022-12-05T18:58:41.955Z,68.97
2022-12-05T19:01:11.455Z,74.63
2022-12-05T19:03:39.937Z,75.20
2022-12-05T19:06:14.444Z,73.50
2022-12-05T19:08:43.044Z,79.23
2022-12-05T19:11:13.034Z,81.97
2022-12-05T19:13:41.378Z,79.17
2022-12-05T19:16:10.302Z,83.07
2022-12-05T19:18:38.751Z,84.53
2022-12-05T19:21:07.290Z,81.03
2022-12-05T19:23:35.809Z,81.87
2022-12-05T19:26:04.923Z,88.40
2022-12-05T19:28:34.932Z,84.43
2022-12-05T19:31:03.635Z,84.20
2022-12-05T19:33:33.312Z,90.57
2022-12-05T19:36:06.060Z,90.73
2022-12-05T19:38:35.039Z,99.53
2022-12-05T19:41:03.600Z,105.70
2022-12-05T19:43:31.873Z,109.50
2022-12-05T19:46:04.251Z,103.07
2022-12-05T19:48:32.646Z,110.00
2022-12-05T19:51:01.415Z,105.63
2022-12-05T19:53:30.000Z,115.60
2022-12-05T19:56:01.757Z,112.83
2022-12-05T19:58:30.043Z,110.03
2022-12-05T20:00:58.494Z,106.13
2022-12-05T20:03:28.541Z,103.97
2022-12-05T20:06:00.110Z,107.00
2022-12-05T20:08:28.311Z,100.27
2022-12-05T20:10:56.682Z,100.37
2022-12-05T20:13:45.818Z,91.77
2022-12-05T20:16:14.019Z,102.13
2022-12-05T20:18:43.634Z,100.80
2022-12-05T20:21:13.059Z,93.83
2022-12-05T20:23:41.144Z,97.27
2022-12-05T20:26:10.477Z,100.43
2022-12-05T20:28:38.666Z,95.40
2022-12-05T20:31:08.700Z,91.30
2022-12-05T20:33:36.948Z,101.93
2022-12-05T20:36:07.488Z,102.53
2022-12-05T20:38:35.578Z,106.97
2022-12-05T20:41:04.754Z,96.27
2022-12-05T20:43:33.263Z,96.77
2022-12-05T20:46:04.891Z,96.00
2022-12-05T20:48:33.389Z,101.43
2022-12-05T20:51:07.211Z,96.23
2022-12-05T20:53:36.155Z,96.73
2022-12-05T20:56:05.677Z,95.07
2022-12-05T20:58:34.161Z,93.97
2022-12-05T21:01:02.501Z,90.90
2022-12-05T21:03:30.709Z,96.33
2022-12-05T21:05:58.986Z,96.37
2022-12-05T21:08:28.645Z,90.60
2022-12-05T21:10:56.871Z,92.83
2022-12-05T21:13:25.066Z,95.63
2022-12-05T21:15:53.518Z,97.67
2022-12-05T21:18:21.681Z,98.83
2022-12-05T21:20:58.086Z,96.27
2022-12-05T21:23:26.386Z,101.13
2022-12-05T21:25:56.096Z,95.90
2022-12-05T21:28:24.396Z,90.90
2022-12-05T21:30:52.580Z,97.97
2022-12-05T21:33:25.815Z,95.03
2022-12-05T21:35:56.750Z,92.60
2022-12-05T21:38:24.992Z,97.23
2022-12-05T21:40:53.148Z,87.23
2022-12-05T21:43:22.627Z,87.80
2022-12-05T21:45:53.684Z,84.60
2022-12-05T21:48:22.049Z,83.40
2022-12-05T21:50:50.646Z,82.43
2022-12-05T21:53:18.851Z,87.03
2022-12-05T21:55:47.296Z,80.87
2022-12-05T21:58:15.579Z,84.77
2022-12-05T22:00:45.124Z,88.43
2022-12-05T22:03:14.865Z,84.87
2022-12-05T22:05:44.309Z,96.23
2022-12-05T22:08:12.670Z,105.90
2022-12-05T22:10:40.799Z,97.77
2022-12-05T22:13:09.098Z,117.03
2022-12-05T22:15:37.353Z,114.80
2022-12-05T22:18:07.082Z,102.27
2022-12-05T22:20:35.184Z,103.87
2022-12-05T22:23:03.777Z,104.43
2022-12-05T22:25:31.942Z,101.57
2022-12-05T22:28:00.690Z,104.13
2022-12-05T22:30:29.002Z,115.27
2022-12-05T22:32:57.112Z,115.20
2022-12-05T22:35:26.927Z,117.13
2022-12-05T22:37:55.479Z,112.50
2022-12-05T22:40:23.735Z,115.17
2022-12-05T22:42:51.939Z,115.07
2022-12-05T22:45:20.399Z,110.43
2022-12-05T22:47:48.734Z,116.27
2022-12-05T22:50:17.291Z,112.20
2022-12-05T22:52:46.892Z,107.93
2022-12-05T22:55:15.216Z,115.30
2022-12-05T22:57:43.329Z,114.33
2022-12-05T23:00:12.774Z,114.63
2022-12-05T23:02:41.047Z,120.37
2022-12-05T23:05:09.743Z,116.90
2022-12-05T23:07:38.147Z,114.03
2022-12-05T23:10:09.548Z,115.77
2022-12-05T23:12:37.882Z,112.40
2022-12-05T23:15:07.923Z,114.70
2022-12-05T23:17:36.107Z,125.50
2022-12-05T23:20:04.985Z,119.37
2022-12-05T23:22:33.375Z,124.30
2022-12-05T23:25:01.874Z,115.23
2022-12-05T23:27:31.455Z,123.57
2022-12-05T23:29:59.916Z,115.63
2022-12-05T23:32:28.213Z,126.57
2022-12-05T23:34:56.763Z,121.03
2022-12-05T23:37:25.291Z,116.93
2022-12-05T23:39:53.517Z,119.20
2022-12-05T23:42:21.867Z,118.80
2022-12-05T23:44:51.735Z,120.80
2022-12-05T23:47:19.939Z,118.03
2022-12-05T23:49:48.068Z,117.27
2022-12-05T23:52:16.326Z,108.73
2022-12-05T23:54:44.604Z,115.00
2022-12-05T23:57:17.363Z,107.30
2022-12-05T23:59:46.239Z,124.17
